Flight Track Log - Related Links

Times and Time Zones

All times are in EDT time to prevent confusion due to time zone crossing. See the UAL831 flight status page for this flight to view local times or setup timezone preferences in your user account.

Time Position Orientation Groundspeed Altitude Reporting Facility
EDT Latitude Longitude Course Direction KTS MPH feet Rate Location/Type
Tue 07:38:24 AM 41.5489 -93.6608 258° West 126 145 1,700  Level Minneapolis Center
Tue 07:39:30 AM 41.5508 -93.7294 272° West 174 200 4,500 2,507 Climbing Minneapolis Center
Tue 07:39:31 AM 41.5561 -93.7192 56° Northeast 183 211 4,500 3,382 Level Minneapolis Center
Tue 07:40:25 AM 41.5422 -93.7942 256° West 251 289 7,600 3,400 Climbing Minneapolis Center
Tue 07:40:31 AM 41.5364 -93.8086 242° Southwest 221 254 7,900 2,955 Climbing Minneapolis Center
Tue 07:41:00 AM 41.4597 -94.0218 256° West  Level FlightAware Approximate
Tue 07:41:32 AM 41.5236 -93.8889 258° West 240 276 10,900  Level Minneapolis Center
Tue 07:42:00 AM 41.4370 -94.1468 256° West  Level FlightAware Approximate
Tue 07:42:33 AM 41.5008 -94.0003 255° West 275 316 12,900  Level Minneapolis Center
Tue 07:43:00 AM 41.4171 -94.2726 258° West  Level FlightAware Approximate
Tue 07:43:34 AM 41.4756 -94.1431 257° West 324 373 16,700  Level Minneapolis Center
Tue 07:44:35 AM 41.4522 -94.2678 256° West 337 388 18,900 2,164 Climbing Minneapolis Center
Tue 07:45:36 AM 41.4278 -94.3986 256° West 362 417 21,100 2,066 Climbing Minneapolis Center
Tue 07:46:37 AM 41.4014 -94.5344 256° West 375 432 23,100 1,869 Climbing Minneapolis Center
Tue 07:47:38 AM 41.3756 -94.6736 256° West 383 441 24,900 1,869 Climbing Minneapolis Center
Tue 07:48:39 AM 41.3486 -94.8156 256° West 391 450 26,900 1,525 Climbing Minneapolis Center
Tue 07:49:40 AM 41.3206 -94.9608 256° West 399 459 28,000 1,131 Climbing Minneapolis Center
Tue 07:50:41 AM 41.2908 -95.1117 255° West 415 478 29,200 1,377 Climbing Minneapolis Center
Tue 07:51:42 AM 41.2619 -95.2647 256° West 421 484 30,800 1,672 Climbing Minneapolis Center
Tue 07:52:43 AM 41.2322 -95.4142 255° West 421 484 32,600 1,820 Climbing Minneapolis Center
Tue 07:53:44 AM 41.2022 -95.5617 255° West 415 478 34,500 1,475 Climbing Minneapolis Center
Tue 07:54:45 AM 41.1731 -95.7131 256° West 408 470 35,600 1,230 Climbing Minneapolis Center
Tue 07:55:46 AM 41.1394 -95.8572 253° West 408 470 37,000 1,180 Climbing Minneapolis Center
Tue 07:56:47 AM 41.1056 -95.9969 252° West 408 470 38,000 492 Climbing Minneapolis Center
Tue 07:57:48 AM 41.0717 -96.1394 253° West 405 466 38,000  Level Minneapolis Center
Tue 07:58:50 AM 41.0367 -96.2842 252° West 406 467 38,000  Level Minneapolis Center
Tue 07:59:51 AM 41.0017 -96.4275 252° West 406 467 38,000  Level Minneapolis Center
Tue 08:00:52 AM 40.9664 -96.5706 252° West 406 467 38,000  Level Minneapolis Center
Tue 08:01:53 AM 40.9308 -96.7117 252° West 406 467 38,000  Level Minneapolis Center
Tue 08:02:54 AM 40.8644 -96.8758 242° Southwest 417 480 38,000  Level Minneapolis Center
Tue 08:03:55 AM 40.8019 -97.0089 238° Southwest 422 486 38,000  Level Minneapolis Center
Tue 08:04:56 AM 40.7417 -97.1417 239° Southwest 422 486 38,000  Level Minneapolis Center
Tue 08:05:58 AM 40.6789 -97.2772 239° Southwest 422 486 38,000  Level Minneapolis Center
Tue 08:06:59 AM 40.6183 -97.4125 240° Southwest 424 488 38,000  Level Minneapolis Center
Tue 08:08:00 AM 40.5550 -97.5475 238° Southwest 427 491 38,000  Level Minneapolis Center
Tue 08:09:01 AM 40.4928 -97.6828 239° Southwest 429 494 38,000  Level Minneapolis Center
Tue 08:10:02 AM 40.4314 -97.8142 238° Southwest 425 489 38,000  Level Minneapolis Center
Tue 08:11:04 AM 40.3700 -97.9447 238° Southwest 421 484 38,000  Level Minneapolis Center
Tue 08:12:05 AM 40.3072 -98.0769 238° Southwest 421 484 38,000  Level Minneapolis Center
Tue 08:13:06 AM 40.2461 -98.2086 239° Southwest 421 484 38,000  Level Minneapolis Center
Tue 08:14:08 AM 40.1825 -98.3411 238° Southwest 424 488 38,000  Level Minneapolis Center
Tue 08:15:09 AM 40.1197 -98.4731 238° Southwest 424 488 38,000  Level Minneapolis Center
Tue 08:16:10 AM 40.0456 -98.6289 238° Southwest 423 487 38,000  Level Minneapolis Center
Tue 08:17:12 AM 39.9828 -98.7583 238° Southwest 423 487 38,000 -537 Level Minneapolis Center
Tue 08:18:13 AM 39.9317 -98.8875 243° Southwest 404 465 36,900 -984 Descending Minneapolis Center
Tue 08:19:14 AM 39.8878 -99.0133 246° West 385 443 36,000 -563 Descending Minneapolis Center
Tue 08:19:49 AM 39.8589 -99.0933 245° Southwest 396 456 36,000  Level Denver Center
Tue 08:20:49 AM 39.8114 -99.2283 245° Southwest 407 468 36,000  Level Denver Center
Tue 08:21:50 AM 39.7625 -99.3611 244° Southwest 406 467 36,000  Level Denver Center
Tue 08:22:50 AM 39.7133 -99.4978 245° Southwest 413 475 36,000  Level Denver Center
Tue 08:23:51 AM 39.6644 -99.6328 245° Southwest 413 475 36,000 -446 Level Denver Center
Tue 08:24:51 AM 39.6156 -99.7683 245° Southwest 414 476 35,100 -893 Descending Denver Center
Tue 08:25:52 AM 39.5661 -99.9031 245° Southwest 414 476 34,200 -541 Descending Denver Center
Tue 08:26:53 AM 39.5133 -100.0458 244° Southwest 414 476 34,000 -99 Descending Denver Center
Tue 08:27:53 AM 39.4658 -100.1744 244° Southwest 414 476 34,000  Level Denver Center
Tue 08:28:54 AM 39.4175 -100.3039 244° Southwest 415 478 34,000  Level Denver Center
Tue 08:29:54 AM 39.3692 -100.4336 244° Southwest 417 480 34,000  Level Denver Center
Tue 08:30:55 AM 39.3125 -100.5853 244° Southwest 417 480 34,000  Level Denver Center
Tue 08:31:56 AM 39.2636 -100.7158 244° Southwest 418 481 34,000  Level Denver Center
Tue 08:32:56 AM 39.2142 -100.8458 244° Southwest 418 481 34,000  Level Denver Center
Tue 08:33:57 AM 39.1564 -100.9981 244° Southwest 421 484 34,000  Level Denver Center
Tue 08:34:58 AM 39.1064 -101.1303 244° Southwest 426 490 34,000  Level Denver Center
Tue 08:35:59 AM 39.0578 -101.2622 245° Southwest 426 490 34,000  Level Denver Center
Tue 08:37:00 AM 39.0458 -101.4244 265° West 412 474 34,000  Level Denver Center
Tue 08:38:00 AM 39.0400 -101.5631 267° West 404 465 34,000 -99 Level Denver Center
Tue 08:39:01 AM 39.0336 -101.7014 267° West 404 465 33,800 -639 Descending Denver Center
Tue 08:40:02 AM 39.0286 -101.8614 268° West 404 465 32,700 -885 Descending Denver Center
Tue 08:41:03 AM 39.0225 -101.9997 267° West 404 465 32,000 -344 Descending Denver Center
Tue 08:42:04 AM 39.0158 -102.1383 267° West 404 465 32,000  Level Denver Center
Tue 08:43:04 AM 39.0094 -102.2981 267° West 404 465 32,000  Level Denver Center
Tue 08:44:05 AM 39.0031 -102.4356 267° West 404 465 32,000  Level Denver Center
Tue 08:45:06 AM 38.9969 -102.5739 267° West 404 465 32,000  Level Denver Center
Tue 08:46:07 AM 38.9981 -102.7342 271° West 404 465 32,000  Level Denver Center
Tue 08:47:08 AM 39.0342 -102.8558 291° West 397 457 32,000  Level Denver Center
Tue 08:48:09 AM 39.0742 -102.9864 292° West 394 453 32,000  Level Denver Center
Tue 08:49:10 AM 39.1142 -103.1203 291° West 401 461 32,000  Level Denver Center
Tue 08:50:11 AM 39.1531 -103.2519 291° West 398 458 32,000 -393 Level Denver Center
Tue 08:51:12 AM 39.1933 -103.3853 291° West 398 458 31,200 -1,918 Descending Denver Center
Tue 08:52:13 AM 39.2394 -103.5428 291° West 396 456 28,100 -2,754 Descending Denver Center
Tue 08:53:14 AM 39.2778 -103.6714 291° West 388 447 25,600 -2,164 Descending Denver Center
Tue 08:54:15 AM 39.3256 -103.7836 299° West 363 418 23,700 -1,721 Descending Denver Center
Tue 08:55:16 AM 39.3733 -103.8872 301° West 342 394 22,100 -1,377 Descending Denver Center
Tue 08:56:17 AM 39.4183 -103.9761 303° West 301 346 20,900 -1,339 Descending Denver Center
Tue 08:57:17 AM 39.4683 -104.0586 308° West 289 333 19,400 -1,537 Descending Denver Center
Tue 08:58:18 AM 39.5189 -104.1397 309° West 272 313 17,800 -1,180 Descending Denver Center
Tue 08:59:19 AM 39.5525 -104.1994 306° West 269 310 17,000 -836 Descending Denver Center
Tue 09:00:20 AM 39.5994 -104.2767 308° West 273 314 16,100 -1,033 Descending Denver Center
Tue 09:01:21 AM 39.6575 -104.3744 308° West 277 319 14,900 -984 Descending Denver Center
Tue 09:02:22 AM 39.6992 -104.4428 308° West 283 326 14,100 -896 Descending Denver Center
Tue 09:03:35 AM 39.7683 -104.5231 318° Northwest 290 334 12,900 -1,299 Descending Denver Center
Tue 09:04:36 AM 39.8658 -104.5208 North 288 331 11,200 -1,027 Descending Denver Center
Tue 09:05:26 AM 39.9167 -104.5167 North 253 291 11,000 -108 Descending Denver TRACON
Tue 09:06:27 AM 39.9833 -104.5167 360° North 214 246 11,000 -545 Level Denver TRACON
Tue 09:07:27 AM 40.0500 -104.5167 360° North 213 245 9,900 -1,190 Descending Denver TRACON
Tue 09:08:28 AM 40.0667 -104.5833 288° West 209 241 8,600 -1,210 Descending Denver TRACON
Tue 09:09:26 AM 40.0167 -104.6333 217° Southwest 204 235 7,500 -763 Descending Denver TRACON
Tue 09:10:26 AM 39.9833 -104.6833 229° Southwest 175 201 7,100 -595 Descending Denver TRACON
Tue 09:11:27 AM 39.9500 -104.6833 180° South 143 165 6,300 -744 Descending Denver TRACON
Tue 09:12:27 AM 39.9000 -104.6833 180° South 132 152 5,600 -700 Descending Denver TRACON

Login

Don't have an account? Register now (free) for customized features, flight alerts, and more!